Aérodrome :
LOGIN :

S'inscrire | Disclaimer

   EN    FR    IT 

 










Légende :    VFR   VFR Marginal   IFR   IFR Intensif   IFR Très Intensif
Visi : 
Plafond : 
>= 8 km
>= 3000ft
5 à 8 km
1000 à 3000 ft
1500m à 5 km
500 à 1000 ft
800 à 1500m
200 à 500 ft
< 800m
< 200 ft
Symboles :   Orages  Brouillard  Fortes neiges  Fortes précipitations  Vent > 20 kt
SIGMETs :   Divers  Orages  Givrage  Turbulence  Onde Orograph.  Cendres Volcan.







- Altitude de l'aérodrome : 348 ft
- Code IATA : STN
- Voir les cartes d'approche


EGSS - London Stansted

DERNIER METAR :
  • 222150Z AUTO 10005KT 9999 BKN044 06/05 Q1011

METARs EXPIRÉS :
  • 222120Z AUTO 09004KT 9999 FEW036 05/04 Q1010
  • 222050Z AUTO VRB03KT 9999 FEW041 05/04 Q1010
  • 222020Z AUTO 13006KT 9999 NCD 06/04 Q1010
  • 221950Z AUTO 15005KT 9999 NCD 06/04 Q1010
  • 221920Z AUTO 14007KT 100V200 9999 NCD 06/05 Q1009

TAF TAF EGSS
Valide du 22 à 18h jusqu'au 24 à 00h UTC


221657Z 2218/2324 16010KT 9999 SCT025
BECMG 2218/2221 10004KT
TEMPO 2221/2306 7000 RA BKN009
PROB30
TEMPO 2301/2307 3000 BR BKN004
BECMG 2305/2308 06014KT
PROB30
TEMPO 2307/2309 BKN009
PROB30
TEMPO 2310/2324 07015G25KT
PROB30
TEMPO 2322/2324 BKN014
ATIS : +44 1279 669 325
Pas de NOTAMs connus pour ce terrain.



MET'MAP, la Météo Aéronautique d'un coup d'oeil ! - Copyright ORBIFLY Décembre 2007 - Disclaimer

ORBIFLY MET'MAP TEAM :

Programmation & Développement : Alexandra Zaïnal
Conception & Développement : Baudouin d'Aumeries
Co-Programmation & Développement : Marc-Olivier Méhu
Soutien technique & logistique : Manuel Goepfert

Contact : metmap@orbifly.com




SOURCES & CREDITS :

   NOAA